Time;durP1;ratioP1;P1;durP2;ratioP2;P2;SDS_P1;SDS_P2;PMS_P1;PMS_P2;Temp;Humidity;BMP_temperature;BMP_pressure;BME280_temperature;BME280_humidity;BME280_pressure;Samples;Min_cycle;Max_cycle;Signal;HPM_P1;HPM_P2
2021/12/15 00:00:16;;;;;;;0.40;0.40;;;;;;;;;;1881422;76;26253;-31
2021/12/15 00:02:45;;;;;;;0.30;0.30;;;;;;;;;;1870991;76;26273;-31
2021/12/15 00:05:21;;;;;;;1.05;0.20;;;;;;;;;;1868060;76;26378;-31
2021/12/15 00:07:42;;;;;;;0.42;0.30;;;;;;;;;;1887840;76;26334;-31
2021/12/15 00:10:10;;;;;;;0.30;0.30;;;;;;;;;;1876112;76;26786;-31
2021/12/15 00:12:37;;;;;;;0.28;0.28;;;;;;;;;;1877700;76;26269;-32
2021/12/15 00:15:05;;;;;;;0.30;0.30;;;;;;;;;;1862238;76;26231;-31
2021/12/15 00:17:33;;;;;;;0.45;0.35;;;;;;;;;;1858725;76;26719;-31
2021/12/15 00:20:00;;;;;;;0.30;0.30;;;;;;;;;;1878963;76;26239;-31
2021/12/15 00:22:28;;;;;;;0.28;0.28;;;;;;;;;;1849552;77;26280;-31
2021/12/15 00:24:55;;;;;;;0.33;0.33;;;;;;;;;;1848781;77;26266;-31
2021/12/15 00:27:24;;;;;;;0.30;0.30;;;;;;;;;;1851944;77;26284;-31
2021/12/15 00:29:51;;;;;;;0.20;0.20;;;;;;;;;;1853994;76;25744;-31
2021/12/15 00:32:19;;;;;;;0.28;0.28;;;;;;;;;;1838401;76;26287;-31
2021/12/15 00:34:48;;;;;;;1.12;0.30;;;;;;;;;;1838131;77;26262;-30
2021/12/15 00:37:15;;;;;;;0.35;0.30;;;;;;;;;;1853914;76;26352;-31
2021/12/15 00:39:42;;;;;;;0.40;0.40;;;;;;;;;;1838008;77;26296;-31
2021/12/15 00:42:10;;;;;;;0.30;0.30;;;;;;;;;;1840672;76;26224;-31
2021/12/15 00:44:37;;;;;;;0.40;0.40;;;;;;;;;;1866145;76;26259;-31
2021/12/15 00:47:05;;;;;;;0.30;0.30;;;;;;;;;;1846114;77;26896;-31
2021/12/15 00:49:33;;;;;;;0.40;0.40;;;;;;;;;;1854646;77;26286;-32
2021/12/15 00:52:00;;;;;;;0.30;0.30;;;;;;;;;;1859132;77;26222;-31
2021/12/15 00:54:28;;;;;;;0.20;0.20;;;;;;;;;;1840571;76;26279;-31
2021/12/15 00:56:56;;;;;;;0.68;0.30;;;;;;;;;;1857888;77;26852;-31
2021/12/15 00:59:24;;;;;;;0.33;0.33;;;;;;;;;;1847709;77;26265;-31
2021/12/15 01:01:51;;;;;;;0.30;0.30;;;;;;;;;;1837838;77;26350;-31
2021/12/15 01:04:21;;;;;;;0.30;0.30;;;;;;;;;;1857517;77;26839;-31
2021/12/15 01:06:52;;;;;;;0.30;0.30;;;;;;;;;;1837412;77;26760;-31
2021/12/15 01:09:20;;;;;;;0.20;0.20;;;;;;;;;;1838674;76;26355;-31
2021/12/15 01:20:02;;;;;;;0.30;0.30;;;;;;;;;;1852841;77;26423;-31
2021/12/15 01:22:34;;;;;;;0.30;0.30;;;;;;;;;;1839498;77;26280;-31
2021/12/15 01:25:05;;;;;;;0.30;0.30;;;;;;;;;;1862753;77;26210;-31
2021/12/15 01:27:33;;;;;;;5.60;0.72;;;;;;;;;;1848631;76;26278;-31
2021/12/15 01:30:00;;;;;;;0.30;0.30;;;;;;;;;;1864387;76;26331;-31
2021/12/15 01:32:28;;;;;;;0.30;0.30;;;;;;;;;;1863249;77;26315;-31
2021/12/15 01:34:55;;;;;;;0.20;0.20;;;;;;;;;;1839452;77;26846;-31
2021/12/15 01:37:22;;;;;;;0.30;0.30;;;;;;;;;;1855797;76;26328;-31
2021/12/15 01:39:54;;;;;;;0.40;0.40;;;;;;;;;;1860975;76;26269;-31
2021/12/15 01:42:19;;;;;;;0.28;0.28;;;;;;;;;;1847765;75;26356;-31
2021/12/15 01:47:32;;;;;;;0.10;0.10;;;;;;;;;;1859244;77;26286;-31
2021/12/15 01:49:59;;;;;;;0.30;0.20;;;;;;;;;;1846365;77;26280;-30
2021/12/15 01:52:28;;;;;;;0.20;0.20;;;;;;;;;;1845795;77;26328;-31
2021/12/15 01:54:57;;;;;;;0.30;0.30;;;;;;;;;;1854719;77;26285;-31
2021/12/15 01:57:25;;;;;;;0.30;0.30;;;;;;;;;;1842327;77;26277;-31
2021/12/15 01:59:54;;;;;;;0.30;0.30;;;;;;;;;;1850162;77;26331;-31
2021/12/15 02:02:23;;;;;;;0.33;0.30;;;;;;;;;;1862623;76;26313;-31
2021/12/15 02:04:51;;;;;;;0.35;0.35;;;;;;;;;;1854683;76;26306;-30
2021/12/15 02:07:20;;;;;;;0.30;0.30;;;;;;;;;;1867605;76;26332;-30
2021/12/15 02:12:31;;;;;;;0.33;0.33;;;;;;;;;;1858157;76;26295;-30
2021/12/15 02:14:57;;;;;;;0.28;0.28;;;;;;;;;;1837088;77;26288;-31
2021/12/15 02:17:25;;;;;;;0.30;0.30;;;;;;;;;;1844798;77;26325;-30
2021/12/15 02:19:52;;;;;;;0.20;0.20;;;;;;;;;;1848217;77;26296;-31
2021/12/15 02:22:19;;;;;;;0.23;0.23;;;;;;;;;;1848900;76;26297;-30
2021/12/15 02:24:50;;;;;;;0.15;0.15;;;;;;;;;;1841629;77;26357;-30
2021/12/15 02:27:16;;;;;;;0.30;0.30;;;;;;;;;;1856528;75;26350;-30
2021/12/15 02:29:47;;;;;;;0.23;0.23;;;;;;;;;;1849709;77;26270;-30
2021/12/15 02:32:39;;;;;;;0.20;0.20;;;;;;;;;;1852966;76;26274;-30
2021/12/15 02:37:36;;;;;;;0.20;0.20;;;;;;;;;;1848923;77;26335;-30
2021/12/15 02:40:10;;;;;;;0.20;0.20;;;;;;;;;;1852300;77;26445;-30
2021/12/15 02:42:39;;;;;;;0.30;0.30;;;;;;;;;;1852391;76;26302;-30
2021/12/15 02:45:08;;;;;;;0.30;0.30;;;;;;;;;;1843399;76;26284;-30
2021/12/15 02:47:35;;;;;;;0.28;0.28;;;;;;;;;;1851462;76;26339;-30
2021/12/15 02:50:04;;;;;;;0.20;0.20;;;;;;;;;;1838185;76;26983;-30
2021/12/15 02:52:31;;;;;;;0.30;0.30;;;;;;;;;;1848243;77;26970;-30
2021/12/15 02:54:59;;;;;;;0.20;0.20;;;;;;;;;;1862618;77;26393;-30
2021/12/15 02:57:26;;;;;;;0.20;0.20;;;;;;;;;;1855996;77;26290;-30
2021/12/15 03:03:05;;;;;;;0.20;0.20;;;;;;;;;;1849696;77;26402;-30
2021/12/15 03:05:15;;;;;;;0.20;0.20;;;;;;;;;;1846161;77;26891;-30
2021/12/15 03:07:47;;;;;;;0.40;0.35;;;;;;;;;;1835118;77;26288;-30
2021/12/15 03:15:38;;;;;;;1.20;0.35;;;;;;;;;;1848108;76;26312;-30
2021/12/15 03:18:10;;;;;;;0.65;0.25;;;;;;;;;;1862522;76;26295;-30
2021/12/15 03:20:39;;;;;;;0.20;0.20;;;;;;;;;;1847981;76;26356;-30
2021/12/15 03:23:08;;;;;;;0.30;0.30;;;;;;;;;;1853593;76;26319;-30
2021/12/15 03:25:35;;;;;;;0.40;0.40;;;;;;;;;;1870850;76;26219;-30
2021/12/15 03:33:42;;;;;;;0.40;0.20;;;;;;;;;;1858629;76;26347;-30
2021/12/15 03:36:09;;;;;;;0.53;0.40;;;;;;;;;;1879098;76;26727;-30
2021/12/15 03:38:35;;;;;;;0.30;0.30;;;;;;;;;;1871191;76;26243;-30
2021/12/15 03:41:07;;;;;;;0.20;0.20;;;;;;;;;;1870240;76;26221;-31
2021/12/15 03:43:34;;;;;;;0.30;0.30;;;;;;;;;;1870297;76;26342;-31
2021/12/15 03:46:04;;;;;;;0.28;0.28;;;;;;;;;;1864377;76;26354;-30
2021/12/15 03:48:33;;;;;;;0.70;0.30;;;;;;;;;;1868859;75;26276;-30
2021/12/15 03:51:00;;;;;;;0.23;0.20;;;;;;;;;;1858686;76;26269;-30
2021/12/15 03:53:28;;;;;;;0.30;0.30;;;;;;;;;;1873286;76;26293;-30
2021/12/15 03:55:56;;;;;;;0.30;0.30;;;;;;;;;;1871541;74;26359;-30
2021/12/15 03:58:24;;;;;;;0.23;0.23;;;;;;;;;;1873692;76;26360;-30
2021/12/15 04:00:53;;;;;;;0.20;0.20;;;;;;;;;;1880387;76;26300;-30
2021/12/15 04:03:22;;;;;;;0.20;0.20;;;;;;;;;;1823690;77;26283;-31
2021/12/15 04:05:50;;;;;;;0.20;0.20;;;;;;;;;;1793036;79;26482;-30
2021/12/15 04:08:17;;;;;;;0.20;0.20;;;;;;;;;;1807817;78;26356;-30
2021/12/15 04:10:45;;;;;;;0.10;0.10;;;;;;;;;;1822168;77;26268;-31
2021/12/15 04:13:13;;;;;;;0.20;0.20;;;;;;;;;;1841697;77;26303;-30
2021/12/15 04:15:53;;;;;;;0.30;0.30;;;;;;;;;;1845166;77;26302;-30
2021/12/15 04:18:14;;;;;;;0.17;0.17;;;;;;;;;;1821838;78;26299;-31
2021/12/15 04:20:42;;;;;;;0.10;0.10;;;;;;;;;;1837330;77;26290;-30
2021/12/15 04:23:11;;;;;;;0.60;0.30;;;;;;;;;;1842666;77;26308;-30
2021/12/15 04:25:40;;;;;;;0.72;0.60;;;;;;;;;;1812731;78;26260;-30
2021/12/15 04:28:08;;;;;;;0.20;0.20;;;;;;;;;;1789618;78;26372;-30
2021/12/15 04:30:38;;;;;;;0.30;0.30;;;;;;;;;;1787218;78;26320;-30
2021/12/15 04:33:07;;;;;;;0.10;0.10;;;;;;;;;;1799906;78;26893;-29
2021/12/15 04:35:35;;;;;;;0.20;0.20;;;;;;;;;;1802740;78;26319;-29
2021/12/15 04:38:03;;;;;;;0.28;0.28;;;;;;;;;;1796363;78;26801;-29
2021/12/15 04:40:31;;;;;;;0.42;0.20;;;;;;;;;;1785939;78;26301;-29
2021/12/15 04:42:59;;;;;;;0.20;0.20;;;;;;;;;;1791599;78;26698;-30
2021/12/15 04:45:27;;;;;;;0.30;0.30;;;;;;;;;;1786821;78;26771;-29
2021/12/15 04:47:55;;;;;;;0.28;0.28;;;;;;;;;;1788897;78;26312;-29
2021/12/15 04:50:25;;;;;;;0.20;0.20;;;;;;;;;;1817119;78;26342;-29
2021/12/15 04:52:52;;;;;;;0.30;0.30;;;;;;;;;;1811211;78;26405;-29
2021/12/15 04:55:21;;;;;;;0.33;0.20;;;;;;;;;;1808748;78;26735;-29
2021/12/15 04:57:49;;;;;;;0.20;0.20;;;;;;;;;;1818468;78;26779;-29
2021/12/15 05:00:18;;;;;;;0.25;0.25;;;;;;;;;;1788635;78;26223;-29
2021/12/15 05:02:46;;;;;;;0.10;0.10;;;;;;;;;;1814424;79;26817;-29
2021/12/15 05:05:14;;;;;;;0.15;0.15;;;;;;;;;;1784200;78;26858;-29
2021/12/15 05:07:41;;;;;;;0.15;0.15;;;;;;;;;;1811904;78;26330;-29
2021/12/15 05:10:09;;;;;;;0.20;0.20;;;;;;;;;;1813605;78;26221;-29
2021/12/15 05:12:37;;;;;;;0.30;0.30;;;;;;;;;;1811815;78;26636;-29
2021/12/15 05:15:05;;;;;;;0.20;0.20;;;;;;;;;;1809843;79;27556;-29
2021/12/15 05:17:33;;;;;;;0.30;0.30;;;;;;;;;;1816194;78;26715;-30
2021/12/15 05:20:03;;;;;;;0.20;0.20;;;;;;;;;;1806666;79;26423;-29
2021/12/15 05:22:30;;;;;;;0.13;0.13;;;;;;;;;;1799950;78;26294;-30
2021/12/15 05:24:58;;;;;;;0.10;0.10;;;;;;;;;;1834107;77;26293;-29
2021/12/15 05:27:25;;;;;;;0.25;0.20;;;;;;;;;;1827486;77;26261;-30
2021/12/15 05:29:53;;;;;;;1.47;0.28;;;;;;;;;;1843500;77;26718;-30
2021/12/15 05:32:22;;;;;;;0.25;0.25;;;;;;;;;;1833310;77;26374;-30
2021/12/15 05:34:51;;;;;;;0.30;0.30;;;;;;;;;;1824089;77;26288;-30
2021/12/15 05:37:21;;;;;;;0.23;0.23;;;;;;;;;;1827388;77;26310;-30
2021/12/15 05:39:49;;;;;;;0.33;0.28;;;;;;;;;;1838703;77;26450;-30
2021/12/15 05:42:18;;;;;;;0.30;0.30;;;;;;;;;;1836444;77;26379;-30
2021/12/15 05:44:46;;;;;;;0.23;0.10;;;;;;;;;;1845122;77;26382;-30
2021/12/15 05:47:13;;;;;;;1.50;0.20;;;;;;;;;;1833423;77;26737;-30
2021/12/15 05:49:40;;;;;;;2.35;0.25;;;;;;;;;;1825904;77;26288;-30
2021/12/15 05:52:08;;;;;;;0.30;0.30;;;;;;;;;;1827646;77;26362;-30
2021/12/15 05:54:37;;;;;;;0.47;0.20;;;;;;;;;;1831156;77;26320;-30
2021/12/15 05:57:04;;;;;;;0.85;0.20;;;;;;;;;;1831414;77;26285;-30
2021/12/15 05:59:32;;;;;;;1.50;0.40;;;;;;;;;;1837559;77;26226;-31
2021/12/15 06:01:59;;;;;;;0.80;0.23;;;;;;;;;;1842351;77;26295;-31
2021/12/15 06:04:27;;;;;;;4.92;0.40;;;;;;;;;;1846605;77;26960;-32
2021/12/15 06:06:54;;;;;;;2.00;0.60;;;;;;;;;;1827028;77;26280;-37
2021/12/15 06:09:22;;;;;;;5.15;0.60;;;;;;;;;;1830021;77;26299;-36
2021/12/15 06:11:52;;;;;;;7.20;0.70;;;;;;;;;;1823263;77;26279;-36
2021/12/15 06:14:23;;;;;;;3.22;0.50;;;;;;;;;;1835264;77;26280;-36
2021/12/15 06:16:48;;;;;;;0.82;0.40;;;;;;;;;;1836734;77;26355;-37
2021/12/15 06:19:15;;;;;;;3.92;0.60;;;;;;;;;;1827375;77;27415;-37
2021/12/15 06:21:42;;;;;;;5.42;0.50;;;;;;;;;;1832774;77;26249;-37
2021/12/15 06:24:10;;;;;;;4.08;0.80;;;;;;;;;;1825936;77;26682;-37
2021/12/15 06:26:37;;;;;;;2.47;0.60;;;;;;;;;;1838831;77;26296;-37
2021/12/15 06:29:05;;;;;;;2.47;0.40;;;;;;;;;;1823215;77;26326;-36
2021/12/15 06:31:32;;;;;;;2.17;0.40;;;;;;;;;;1839934;77;26779;-37
2021/12/15 06:33:59;;;;;;;1.25;0.53;;;;;;;;;;1831441;77;26339;-37
2021/12/15 06:36:30;;;;;;;3.35;0.55;;;;;;;;;;1832625;77;26745;-36
2021/12/15 06:38:57;;;;;;;3.83;0.93;;;;;;;;;;1816316;77;26342;-36
2021/12/15 06:41:24;;;;;;;1.20;0.60;;;;;;;;;;1834843;77;26919;-36
2021/12/15 06:43:56;;;;;;;1.72;0.70;;;;;;;;;;1832798;77;26273;-36
2021/12/15 06:59:45;;;;;;;1.17;0.70;;;;;;;;;;1817443;77;26234;-36
2021/12/15 07:02:14;;;;;;;0.53;0.47;;;;;;;;;;1825041;77;26293;-36
2021/12/15 07:04:42;;;;;;;0.40;0.40;;;;;;;;;;1817512;77;26261;-37
2021/12/15 07:07:09;;;;;;;1.55;0.40;;;;;;;;;;1824381;77;26310;-37
2021/12/15 07:09:37;;;;;;;0.30;0.20;;;;;;;;;;1837879;77;26717;-37
2021/12/15 07:12:05;;;;;;;0.40;0.40;;;;;;;;;;1823635;77;26350;-36
2021/12/15 07:14:33;;;;;;;1.25;0.30;;;;;;;;;;1834921;77;26759;-36
2021/12/15 07:17:07;;;;;;;0.57;0.28;;;;;;;;;;1839699;77;26355;-37
2021/12/15 07:19:34;;;;;;;1.12;0.37;;;;;;;;;;1835755;77;26742;-36
2021/12/15 07:22:17;;;;;;;1.45;0.20;;;;;;;;;;1817295;77;26286;-36
2021/12/15 07:24:38;;;;;;;1.55;0.30;;;;;;;;;;1833656;77;26398;-37
2021/12/15 07:27:06;;;;;;;0.28;0.28;;;;;;;;;;1819522;78;26264;-37
2021/12/15 07:29:34;;;;;;;0.20;0.20;;;;;;;;;;1813848;77;26292;-37
2021/12/15 07:32:02;;;;;;;1.37;0.20;;;;;;;;;;1812261;77;26363;-37
2021/12/15 07:34:29;;;;;;;1.40;0.20;;;;;;;;;;1819755;78;26628;-37
2021/12/15 07:36:57;;;;;;;0.25;0.25;;;;;;;;;;1822918;77;26326;-37
2021/12/15 07:39:24;;;;;;;0.30;0.30;;;;;;;;;;1808992;78;26306;-37
2021/12/15 07:42:02;;;;;;;0.10;0.10;;;;;;;;;;1817547;77;26740;-36
2021/12/15 07:44:22;;;;;;;0.20;0.20;;;;;;;;;;1818724;78;26733;-37
2021/12/15 07:46:50;;;;;;;0.20;0.20;;;;;;;;;;1822538;78;26265;-37
2021/12/15 07:49:19;;;;;;;0.30;0.30;;;;;;;;;;1821276;78;26292;-36
2021/12/15 07:51:47;;;;;;;0.17;0.17;;;;;;;;;;1832091;78;26274;-37
2021/12/15 07:54:16;;;;;;;0.30;0.30;;;;;;;;;;1827337;77;26268;-37
2021/12/15 07:56:43;;;;;;;0.10;0.10;;;;;;;;;;1827056;78;26289;-37
2021/12/15 07:59:11;;;;;;;0.20;0.20;;;;;;;;;;1821536;78;26289;-37
2021/12/15 08:01:38;;;;;;;0.20;0.20;;;;;;;;;;1828920;77;26320;-37
2021/12/15 08:04:06;;;;;;;1.17;0.20;;;;;;;;;;1823662;78;26291;-36
2021/12/15 08:06:33;;;;;;;0.50;0.10;;;;;;;;;;1830657;77;26805;-37
2021/12/15 08:09:00;;;;;;;0.20;0.20;;;;;;;;;;1833826;78;26339;-37
2021/12/15 08:11:28;;;;;;;0.10;0.10;;;;;;;;;;1813724;78;26301;-36
2021/12/15 08:13:57;;;;;;;0.10;0.10;;;;;;;;;;1822025;78;26288;-36
2021/12/15 08:16:25;;;;;;;0.80;0.10;;;;;;;;;;1827594;78;26332;-37
2021/12/15 08:18:53;;;;;;;0.10;0.10;;;;;;;;;;1828540;77;26329;-36
2021/12/15 08:21:20;;;;;;;0.30;0.30;;;;;;;;;;1837236;78;26285;-37
2021/12/15 08:23:47;;;;;;;0.20;0.20;;;;;;;;;;1819971;78;26261;-37
2021/12/15 08:26:15;;;;;;;0.45;0.17;;;;;;;;;;1831611;77;27811;-37
2021/12/15 08:28:42;;;;;;;0.10;0.10;;;;;;;;;;1829352;77;26302;-37
2021/12/15 08:31:09;;;;;;;0.10;0.10;;;;;;;;;;1830169;77;26349;-37
2021/12/15 08:33:37;;;;;;;0.10;0.10;;;;;;;;;;1824312;77;26333;-37
2021/12/15 08:36:06;;;;;;;0.45;0.20;;;;;;;;;;1830984;77;26342;-37
2021/12/15 08:38:35;;;;;;;0.10;0.10;;;;;;;;;;1843209;77;26653;-37
2021/12/15 08:41:03;;;;;;;0.55;0.20;;;;;;;;;;1833799;77;26346;-37
2021/12/15 08:43:31;;;;;;;0.20;0.20;;;;;;;;;;1828759;77;26369;-38
2021/12/15 08:46:01;;;;;;;0.20;0.20;;;;;;;;;;1824931;77;26291;-37
2021/12/15 08:48:29;;;;;;;0.93;0.20;;;;;;;;;;1826593;77;27119;-37
2021/12/15 08:50:56;;;;;;;0.20;0.13;;;;;;;;;;1835897;77;26341;-36
2021/12/15 08:53:24;;;;;;;0.10;0.10;;;;;;;;;;1833116;77;26709;-37
2021/12/15 08:55:51;;;;;;;0.00;0.00;;;;;;;;;;1831473;77;26267;-37
2021/12/15 08:58:20;;;;;;;0.42;0.13;;;;;;;;;;1831423;76;26798;-37
2021/12/15 09:00:50;;;;;;;0.10;0.10;;;;;;;;;;1838637;77;26715;-37
2021/12/15 09:03:18;;;;;;;0.10;0.10;;;;;;;;;;1834395;77;26350;-37
2021/12/15 09:05:46;;;;;;;0.15;0.10;;;;;;;;;;1832075;77;26760;-38
2021/12/15 09:08:13;;;;;;;0.10;0.10;;;;;;;;;;1836162;77;26342;-37
2021/12/15 09:10:43;;;;;;;0.10;0.10;;;;;;;;;;1843587;77;26437;-37
2021/12/15 09:13:11;;;;;;;0.20;0.20;;;;;;;;;;1826366;77;26584;-37
2021/12/15 09:15:39;;;;;;;0.20;0.20;;;;;;;;;;1823808;78;26344;-37
2021/12/15 09:18:07;;;;;;;0.10;0.10;;;;;;;;;;1844073;77;26240;-37
2021/12/15 09:20:36;;;;;;;0.10;0.10;;;;;;;;;;1839751;77;26765;-36
2021/12/15 09:23:06;;;;;;;0.15;0.15;;;;;;;;;;1829709;77;26342;-37
2021/12/15 09:25:33;;;;;;;0.20;0.10;;;;;;;;;;1825331;77;26342;-37
2021/12/15 09:28:01;;;;;;;0.10;0.10;;;;;;;;;;1832174;77;26262;-37
2021/12/15 09:30:30;;;;;;;0.10;0.10;;;;;;;;;;1841225;77;26296;-37
2021/12/15 09:32:57;;;;;;;0.10;0.10;;;;;;;;;;1833860;77;26280;-37
2021/12/15 09:35:26;;;;;;;0.10;0.10;;;;;;;;;;1824845;77;26257;-37
2021/12/15 09:37:53;;;;;;;0.10;0.10;;;;;;;;;;1821160;77;26268;-37
2021/12/15 09:40:22;;;;;;;0.10;0.10;;;;;;;;;;1823806;77;26313;-37
2021/12/15 09:42:50;;;;;;;0.10;0.10;;;;;;;;;;1829279;77;26736;-37
2021/12/15 09:45:30;;;;;;;0.10;0.10;;;;;;;;;;1836758;77;26253;-37
2021/12/15 09:48:16;;;;;;;0.00;0.00;;;;;;;;;;1829894;77;26319;-37
2021/12/15 10:07:04;;;;;;;0.10;0.10;;;;;;;;;;1816976;77;26315;-37
2021/12/15 10:12:25;;;;;;;16.60;1.65;;;;;;;;;;1838251;77;26390;-38
2021/12/15 10:19:55;;;;;;;26.50;1.00;;;;;;;;;;1835176;77;26387;-38
2021/12/15 10:22:34;;;;;;;15.40;0.78;;;;;;;;;;1820132;77;26356;-37
2021/12/15 10:24:55;;;;;;;13.32;0.95;;;;;;;;;;1825151;77;26301;-38
2021/12/15 10:27:42;;;;;;;8.88;0.70;;;;;;;;;;1831497;77;26316;-38
2021/12/15 10:30:11;;;;;;;6.50;0.70;;;;;;;;;;1831750;77;26386;-37
2021/12/15 10:32:40;;;;;;;19.05;0.93;;;;;;;;;;1827498;77;26354;-38
2021/12/15 10:35:09;;;;;;;3.35;0.75;;;;;;;;;;1824785;77;26382;-37
2021/12/15 10:37:37;;;;;;;5.97;0.55;;;;;;;;;;1824560;77;26303;-38
2021/12/15 10:40:15;;;;;;;1.60;0.40;;;;;;;;;;1825486;77;26735;-38
2021/12/15 10:42:42;;;;;;;10.05;0.95;;;;;;;;;;1823174;77;26283;-38
2021/12/15 10:45:11;;;;;;;10.05;0.85;;;;;;;;;;1824974;77;26277;-39
2021/12/15 10:47:46;;;;;;;20.70;0.90;;;;;;;;;;1827329;77;26358;-37
2021/12/15 10:50:15;;;;;;;10.43;0.93;;;;;;;;;;1821247;77;26249;-38
2021/12/15 10:52:52;;;;;;;13.65;1.37;;;;;;;;;;1819521;77;26225;-38
2021/12/15 10:55:20;;;;;;;14.30;1.30;;;;;;;;;;1838419;77;26323;-38
2021/12/15 10:57:47;;;;;;;14.33;1.37;;;;;;;;;;1837195;77;27276;-37
2021/12/15 11:00:18;;;;;;;33.90;2.20;;;;;;;;;;1825207;77;26272;-37
2021/12/15 11:02:45;;;;;;;12.05;1.35;;;;;;;;;;1825916;77;26277;-38
2021/12/15 11:05:14;;;;;;;18.12;1.37;;;;;;;;;;1833373;77;26316;-38
2021/12/15 11:07:44;;;;;;;9.90;1.22;;;;;;;;;;1810169;77;26315;-38
2021/12/15 11:10:13;;;;;;;7.92;0.90;;;;;;;;;;1822342;77;26376;-38
2021/12/15 11:12:47;;;;;;;10.08;0.90;;;;;;;;;;1827244;77;26284;-38
2021/12/15 11:15:16;;;;;;;6.00;0.90;;;;;;;;;;1828885;77;26331;-38
2021/12/15 11:17:48;;;;;;;14.83;1.12;;;;;;;;;;1838849;77;26326;-37
2021/12/15 11:20:17;;;;;;;12.45;1.22;;;;;;;;;;1839825;77;26839;-37
2021/12/15 11:22:49;;;;;;;12.65;0.90;;;;;;;;;;1825208;77;26232;-37
2021/12/15 11:25:19;;;;;;;9.48;1.00;;;;;;;;;;1820642;77;26344;-37
2021/12/15 11:27:50;;;;;;;9.93;0.80;;;;;;;;;;1826662;78;26340;-38
2021/12/15 11:30:19;;;;;;;5.53;0.85;;;;;;;;;;1819543;78;26600;-38
2021/12/15 11:32:48;;;;;;;6.83;0.80;;;;;;;;;;1827749;77;26278;-38
2021/12/15 11:35:25;;;;;;;6.42;1.37;;;;;;;;;;1826181;77;26335;-38
2021/12/15 11:37:54;;;;;;;7.10;0.70;;;;;;;;;;1827123;77;26803;-37
2021/12/15 11:40:29;;;;;;;6.70;0.80;;;;;;;;;;1820713;78;26342;-37
2021/12/15 11:42:57;;;;;;;4.80;0.80;;;;;;;;;;1819546;78;26329;-37
2021/12/15 11:45:24;;;;;;;4.53;0.70;;;;;;;;;;1820053;78;26320;-37
2021/12/15 11:47:52;;;;;;;6.40;0.90;;;;;;;;;;1808591;78;26307;-37
2021/12/15 11:50:21;;;;;;;4.30;0.70;;;;;;;;;;1815501;77;26814;-37
2021/12/15 11:52:50;;;;;;;6.78;0.60;;;;;;;;;;1821013;77;26281;-37
2021/12/15 11:55:30;;;;;;;2.98;0.80;;;;;;;;;;1817435;77;26285;-37
2021/12/15 11:57:58;;;;;;;1.98;0.80;;;;;;;;;;1819600;78;26351;-37
2021/12/15 12:00:27;;;;;;;9.00;0.78;;;;;;;;;;1817378;77;26701;-38
2021/12/15 12:02:56;;;;;;;3.95;1.15;;;;;;;;;;1816820;77;26390;-38
2021/12/15 12:05:24;;;;;;;4.60;0.93;;;;;;;;;;1807446;78;26828;-37
2021/12/15 12:07:55;;;;;;;4.40;0.95;;;;;;;;;;1816844;78;26293;-38
2021/12/15 12:10:26;;;;;;;3.37;1.20;;;;;;;;;;1808658;77;26765;-38
2021/12/15 12:13:03;;;;;;;3.25;1.40;;;;;;;;;;1820265;77;26313;-37
2021/12/15 12:15:24;;;;;;;2.50;1.20;;;;;;;;;;1801616;77;26245;-37
2021/12/15 12:17:53;;;;;;;2.92;1.37;;;;;;;;;;1825040;77;26324;-38
2021/12/15 12:20:38;;;;;;;3.83;1.82;;;;;;;;;;1828169;78;26292;-37
2021/12/15 12:23:07;;;;;;;5.30;1.67;;;;;;;;;;1811352;78;26323;-38
2021/12/15 12:25:37;;;;;;;7.37;2.02;;;;;;;;;;1817322;78;26808;-38
2021/12/15 12:28:06;;;;;;;4.90;1.80;;;;;;;;;;1830537;77;26314;-38
2021/12/15 12:30:35;;;;;;;8.00;2.45;;;;;;;;;;1826475;77;26770;-38
2021/12/15 12:33:08;;;;;;;6.70;1.90;;;;;;;;;;1838261;77;26749;-38
2021/12/15 12:35:33;;;;;;;5.72;2.10;;;;;;;;;;1824556;77;26273;-38
2021/12/15 12:38:02;;;;;;;5.95;2.30;;;;;;;;;;1832831;77;27396;-38
2021/12/15 12:40:31;;;;;;;5.10;1.95;;;;;;;;;;1819512;77;27239;-38
2021/12/15 12:42:58;;;;;;;5.83;2.02;;;;;;;;;;1834303;77;26289;-38
2021/12/15 12:45:33;;;;;;;3.27;1.95;;;;;;;;;;1829907;77;26314;-38
2021/12/15 12:48:25;;;;;;;4.85;1.98;;;;;;;;;;1822390;77;26434;-38
2021/12/15 13:01:12;;;;;;;6.35;1.98;;;;;;;;;;1821686;77;26389;-38
2021/12/15 13:03:43;;;;;;;6.85;2.00;;;;;;;;;;1834960;77;26598;-38
2021/12/15 13:06:14;;;;;;;5.03;2.30;;;;;;;;;;1836950;77;26598;-37
2021/12/15 13:09:01;;;;;;;9.60;1.82;;;;;;;;;;1828027;77;26373;-38
2021/12/15 13:11:37;;;;;;;3.02;1.60;;;;;;;;;;1828353;77;26692;-38
2021/12/15 13:14:06;;;;;;;4.05;1.87;;;;;;;;;;1841303;77;26371;-38
2021/12/15 13:16:50;;;;;;;4.97;1.72;;;;;;;;;;1830167;77;26291;-38
2021/12/15 13:19:25;;;;;;;4.20;1.62;;;;;;;;;;1831887;77;26304;-37
2021/12/15 13:22:06;;;;;;;4.92;1.75;;;;;;;;;;1834304;77;26236;-38
2021/12/15 13:30:42;;;;;;;2.92;1.55;;;;;;;;;;1831693;77;26438;-38
2021/12/15 13:33:13;;;;;;;3.45;1.47;;;;;;;;;;1843235;77;26341;-37
2021/12/15 13:35:51;;;;;;;4.20;1.30;;;;;;;;;;1832777;77;26830;-37
2021/12/15 13:38:23;;;;;;;2.60;1.40;;;;;;;;;;1830743;77;26355;-37
2021/12/15 13:40:54;;;;;;;3.85;1.65;;;;;;;;;;1821336;77;26377;-37
2021/12/15 13:43:38;;;;;;;5.58;2.10;;;;;;;;;;1832922;77;26707;-37
2021/12/15 13:46:07;;;;;;;5.65;2.15;;;;;;;;;;1827906;77;26404;-37
2021/12/15 13:48:52;;;;;;;7.35;2.33;;;;;;;;;;1829779;77;26231;-37
2021/12/15 13:51:21;;;;;;;8.48;3.30;;;;;;;;;;1835889;77;26295;-37
2021/12/15 13:53:48;;;;;;;8.85;2.90;;;;;;;;;;1833315;77;25642;-37
2021/12/15 13:56:16;;;;;;;8.03;3.20;;;;;;;;;;1836732;77;26350;-38
2021/12/15 13:58:43;;;;;;;8.03;2.60;;;;;;;;;;1825754;77;26260;-37
2021/12/15 14:01:12;;;;;;;6.05;2.72;;;;;;;;;;1821580;77;26870;-37
2021/12/15 14:03:48;;;;;;;10.23;3.37;;;;;;;;;;1835586;77;26788;-38
2021/12/15 14:06:16;;;;;;;6.58;2.50;;;;;;;;;;1839402;77;26348;-38
2021/12/15 14:08:45;;;;;;;6.25;2.77;;;;;;;;;;1824483;77;26736;-38
2021/12/15 14:11:17;;;;;;;6.08;2.62;;;;;;;;;;1832826;77;26753;-38
2021/12/15 14:13:44;;;;;;;9.40;2.67;;;;;;;;;;1835260;77;26315;-37
2021/12/15 14:16:12;;;;;;;5.95;2.35;;;;;;;;;;1839247;77;26295;-38
2021/12/15 14:18:40;;;;;;;3.90;2.20;;;;;;;;;;1822689;77;26287;-37
2021/12/15 14:21:14;;;;;;;5.30;2.40;;;;;;;;;;1825733;76;26408;-37
2021/12/15 14:23:46;;;;;;;3.58;2.10;;;;;;;;;;1821358;77;26920;-37
2021/12/15 14:26:15;;;;;;;4.08;2.20;;;;;;;;;;1823537;77;26283;-37
2021/12/15 14:28:44;;;;;;;4.78;2.35;;;;;;;;;;1823652;77;26840;-37
2021/12/15 14:31:19;;;;;;;5.33;2.42;;;;;;;;;;1816927;77;26870;-37
2021/12/15 14:33:48;;;;;;;3.77;1.98;;;;;;;;;;1824797;77;26301;-38
2021/12/15 14:36:17;;;;;;;6.28;2.27;;;;;;;;;;1824892;77;26308;-37
2021/12/15 14:38:48;;;;;;;4.97;1.90;;;;;;;;;;1826424;77;26769;-38
2021/12/15 14:41:29;;;;;;;2.77;1.80;;;;;;;;;;1840505;77;26322;-37
2021/12/15 14:43:58;;;;;;;3.67;1.70;;;;;;;;;;1830502;77;26394;-37
2021/12/15 14:46:26;;;;;;;3.95;1.98;;;;;;;;;;1826222;77;26308;-37
2021/12/15 14:49:07;;;;;;;3.33;1.50;;;;;;;;;;1839402;77;26288;-38
2021/12/15 14:51:36;;;;;;;3.20;1.80;;;;;;;;;;1846701;77;26848;-37
2021/12/15 14:54:04;;;;;;;2.87;1.47;;;;;;;;;;1827589;77;26277;-37
2021/12/15 14:56:42;;;;;;;1.67;1.40;;;;;;;;;;1842665;77;26287;-36
2021/12/15 14:59:10;;;;;;;2.25;1.40;;;;;;;;;;1841584;77;26288;-36
2021/12/15 15:01:37;;;;;;;1.65;1.17;;;;;;;;;;1843307;77;26744;-36
2021/12/15 15:04:06;;;;;;;1.92;1.55;;;;;;;;;;1830813;77;26327;-36
2021/12/15 15:06:34;;;;;;;1.82;1.25;;;;;;;;;;1829869;77;26347;-36
2021/12/15 15:09:18;;;;;;;2.15;1.15;;;;;;;;;;1817337;78;26359;-36
2021/12/15 15:11:49;;;;;;;2.70;1.22;;;;;;;;;;1817720;77;26218;-37
2021/12/15 15:14:18;;;;;;;1.20;1.10;;;;;;;;;;1817868;77;26306;-37
2021/12/15 15:16:45;;;;;;;1.90;1.30;;;;;;;;;;1831609;77;26221;-36
2021/12/15 15:19:16;;;;;;;1.42;1.00;;;;;;;;;;1829622;77;26276;-36
2021/12/15 15:21:42;;;;;;;1.07;1.07;;;;;;;;;;1836082;77;26307;-36
2021/12/15 15:24:09;;;;;;;2.87;1.20;;;;;;;;;;1825045;77;26218;-37
2021/12/15 15:26:36;;;;;;;0.90;0.90;;;;;;;;;;1832996;77;26292;-36
2021/12/15 15:29:04;;;;;;;0.90;0.90;;;;;;;;;;1827246;77;26774;-38
2021/12/15 15:31:35;;;;;;;1.10;1.00;;;;;;;;;;1835632;77;26358;-37
2021/12/15 15:34:02;;;;;;;1.00;0.90;;;;;;;;;;1829043;77;26304;-37
2021/12/15 15:36:30;;;;;;;1.27;0.72;;;;;;;;;;1833234;77;27613;-36
2021/12/15 15:38:58;;;;;;;0.90;0.90;;;;;;;;;;1828326;77;26712;-36
2021/12/15 15:41:30;;;;;;;1.45;0.72;;;;;;;;;;1824560;77;26277;-36
2021/12/15 15:43:59;;;;;;;0.80;0.80;;;;;;;;;;1832247;77;26305;-36
2021/12/15 15:46:28;;;;;;;0.90;0.82;;;;;;;;;;1821873;77;26303;-38
2021/12/15 15:48:56;;;;;;;1.05;0.80;;;;;;;;;;1836929;77;26379;-37
2021/12/15 15:51:29;;;;;;;0.70;0.70;;;;;;;;;;1838229;77;26275;-38
2021/12/15 15:53:58;;;;;;;0.78;0.70;;;;;;;;;;1840331;77;26355;-37
2021/12/15 15:56:27;;;;;;;0.62;0.62;;;;;;;;;;1840148;77;26271;-37
2021/12/15 15:58:56;;;;;;;1.37;0.50;;;;;;;;;;1833462;77;26294;-37
2021/12/15 16:01:24;;;;;;;0.55;0.50;;;;;;;;;;1842681;77;26606;-37
2021/12/15 16:03:52;;;;;;;0.68;0.68;;;;;;;;;;1828727;77;26983;-38
2021/12/15 16:06:20;;;;;;;0.60;0.60;;;;;;;;;;1828232;77;26305;-38
2021/12/15 16:08:49;;;;;;;0.47;0.47;;;;;;;;;;1844650;77;26339;-38
2021/12/15 16:11:18;;;;;;;0.50;0.50;;;;;;;;;;1821420;77;26365;-37
2021/12/15 16:13:47;;;;;;;1.22;0.53;;;;;;;;;;1822690;77;26487;-37
2021/12/15 16:16:18;;;;;;;0.50;0.50;;;;;;;;;;1837532;77;26379;-37
2021/12/15 16:18:47;;;;;;;0.82;0.60;;;;;;;;;;1847180;77;26275;-38